createdAt,value
2023-04-16T00:01:35.164Z,94470.06
2023-04-16T00:04:01.947Z,94478.31
2023-04-16T00:06:28.948Z,94465.34
2023-04-16T00:08:56.190Z,94450.69
2023-04-16T00:11:22.827Z,94470.22
2023-04-16T00:13:49.661Z,94471.69
2023-04-16T00:16:16.457Z,94467.00
2023-04-16T00:18:43.162Z,94474.19
2023-04-16T00:21:09.778Z,94472.56
2023-04-16T00:23:36.505Z,94475.88
2023-04-16T00:26:03.244Z,94463.09
2023-04-16T00:28:29.935Z,94470.16
2023-04-16T00:30:56.802Z,94457.91
2023-04-16T00:33:23.807Z,94471.25
2023-04-16T00:35:51.339Z,94475.38
2023-04-16T00:38:18.260Z,94471.56
2023-04-16T00:40:44.909Z,94464.22
2023-04-16T00:43:11.632Z,94468.50
2023-04-16T00:45:38.639Z,94462.50
2023-04-16T00:48:06.074Z,94459.66
2023-04-16T00:50:33.771Z,94469.59
2023-04-16T00:53:01.733Z,94463.59
2023-04-16T00:55:28.448Z,94471.56
2023-04-16T00:57:55.211Z,94456.63
2023-04-16T01:00:22.141Z,94458.31
2023-04-16T01:02:48.931Z,94461.38
2023-04-16T01:05:15.802Z,94455.50
2023-04-16T01:07:42.444Z,94450.22
2023-04-16T01:10:09.109Z,94452.19
2023-04-16T01:12:35.922Z,94449.75
2023-04-16T01:15:03.313Z,94438.59
2023-04-16T01:17:29.956Z,94456.53
2023-04-16T01:20:00.136Z,94408.09
2023-04-16T01:22:28.337Z,94445.44
2023-04-16T01:24:55.097Z,94449.97
2023-04-16T01:27:21.759Z,94443.22
2023-04-16T01:29:48.504Z,94446.50
2023-04-16T01:32:15.170Z,94454.06
2023-04-16T01:34:41.924Z,94436.13
2023-04-16T01:37:08.681Z,94431.16
2023-04-16T01:39:35.645Z,94438.66
2023-04-16T01:42:02.477Z,94444.06
2023-04-16T01:44:29.255Z,94432.00
2023-04-16T01:46:56.011Z,94447.66
2023-04-16T01:49:23.017Z,94418.41
2023-04-16T01:51:49.844Z,94421.53
2023-04-16T01:54:16.627Z,94429.50
2023-04-16T01:56:43.375Z,94419.09
2023-04-16T01:59:10.266Z,94425.88
2023-04-16T02:01:37.110Z,94425.25
2023-04-16T02:04:03.959Z,94430.84
2023-04-16T02:06:31.626Z,94426.03
2023-04-16T02:08:58.290Z,94422.22
2023-04-16T02:11:24.855Z,94434.59
2023-04-16T02:13:51.497Z,94434.13
2023-04-16T02:16:18.246Z,94430.53
2023-04-16T02:18:44.945Z,94422.53
2023-04-16T02:21:11.599Z,94426.16
2023-04-16T02:23:41.260Z,94417.31
2023-04-16T02:26:07.944Z,94414.91
2023-04-16T02:28:34.478Z,94427.47
2023-04-16T02:31:01.159Z,94422.81
2023-04-16T02:33:27.866Z,94417.84
2023-04-16T02:35:54.533Z,94425.34
2023-04-16T02:38:21.713Z,94406.25
2023-04-16T02:40:48.388Z,94427.16
2023-04-16T02:43:15.029Z,94416.88
2023-04-16T02:45:41.724Z,94400.88
2023-04-16T02:48:09.926Z,94409.28
2023-04-16T02:50:36.570Z,94403.09
2023-04-16T02:53:04.297Z,94419.34
2023-04-16T02:55:30.883Z,94418.09
2023-04-16T02:57:57.527Z,94417.31
2023-04-16T03:00:24.216Z,94413.53
2023-04-16T03:02:51.180Z,94418.13
2023-04-16T03:05:17.926Z,94417.66
2023-04-16T03:07:44.527Z,94406.72
2023-04-16T03:10:12.094Z,94414.97
2023-04-16T03:12:39.306Z,94421.16
2023-04-16T03:15:06.328Z,94420.88
2023-04-16T03:17:33.021Z,94419.06
2023-04-16T03:19:59.814Z,94418.59
2023-04-16T03:22:27.044Z,94431.53
2023-04-16T03:24:53.756Z,94423.38
2023-04-16T03:27:20.416Z,94417.91
2023-04-16T03:29:47.062Z,94434.63
2023-04-16T03:32:13.805Z,94413.41
2023-04-16T03:34:40.458Z,94430.00
2023-04-16T03:37:07.193Z,94426.72
2023-04-16T03:39:34.565Z,94414.69
2023-04-16T03:42:02.262Z,94432.94
2023-04-16T03:44:29.705Z,94427.66
2023-04-16T03:46:56.387Z,94432.34
2023-04-16T03:49:23.261Z,94435.91
2023-04-16T03:51:49.839Z,94438.03
2023-04-16T03:54:16.415Z,94426.72
2023-04-16T03:56:43.184Z,94415.00
2023-04-16T03:59:10.232Z,94442.69
2023-04-16T04:01:36.984Z,94419.59
2023-04-16T04:04:04.000Z,94440.84
2023-04-16T04:06:31.177Z,94447.34
2023-04-16T04:08:58.327Z,94433.78
2023-04-16T04:11:24.977Z,94445.69
2023-04-16T04:13:51.575Z,94427.16
2023-04-16T04:16:18.266Z,94451.56
2023-04-16T04:18:45.007Z,94445.66
2023-04-16T04:21:11.776Z,94453.63
2023-04-16T04:23:38.519Z,94446.41
2023-04-16T04:26:05.877Z,94455.31
2023-04-16T04:28:33.163Z,94451.72
2023-04-16T04:31:00.687Z,94464.09
2023-04-16T04:33:27.744Z,94457.50
2023-04-16T04:35:55.129Z,94457.97
2023-04-16T04:38:25.270Z,94460.97
2023-04-16T04:40:52.933Z,94468.22
2023-04-16T04:43:23.050Z,94464.00
2023-04-16T04:45:49.773Z,94462.03
2023-04-16T04:48:16.705Z,94472.72
2023-04-16T04:50:46.163Z,94475.75
2023-04-16T04:53:14.833Z,94477.69
2023-04-16T04:55:41.526Z,94473.34
2023-04-16T04:58:08.676Z,94472.88
2023-04-16T05:00:37.004Z,94471.19
2023-04-16T05:03:06.874Z,94461.81
2023-04-16T05:05:33.698Z,94460.75
2023-04-16T05:08:00.375Z,94472.66
2023-04-16T05:10:27.503Z,94469.59
2023-04-16T05:12:54.260Z,94468.41
2023-04-16T05:15:21.082Z,94473.50
2023-04-16T05:17:47.751Z,94469.72
2023-04-16T05:20:14.668Z,94472.56
2023-04-16T05:22:41.451Z,94481.44
2023-04-16T05:25:08.442Z,94462.56
2023-04-16T05:27:35.122Z,94476.13
2023-04-16T05:30:01.772Z,94472.41
2023-04-16T05:32:28.418Z,94469.94
2023-04-16T05:34:55.121Z,94469.94
2023-04-16T05:37:22.321Z,94466.53
2023-04-16T05:39:49.042Z,94474.69
2023-04-16T05:42:15.886Z,94458.63
2023-04-16T05:44:42.639Z,94459.03
2023-04-16T05:47:09.583Z,94460.41
2023-04-16T05:49:39.352Z,94468.41
2023-04-16T05:52:06.367Z,94470.19
2023-04-16T05:54:32.965Z,94463.59
2023-04-16T05:57:01.130Z,94475.22
2023-04-16T05:59:27.990Z,94470.84
2023-04-16T06:01:54.725Z,94458.81
2023-04-16T06:04:21.352Z,94464.00
2023-04-16T06:06:48.067Z,94457.59
2023-04-16T06:09:14.749Z,94461.56
2023-04-16T06:11:41.442Z,94460.56
2023-04-16T06:14:08.278Z,94461.88
2023-04-16T06:16:34.863Z,94466.66
2023-04-16T06:19:01.513Z,94458.09
2023-04-16T06:21:29.126Z,94477.31
2023-04-16T06:23:56.291Z,94465.75
2023-04-16T06:26:23.091Z,94471.72
2023-04-16T06:28:50.564Z,94466.31
2023-04-16T06:31:17.323Z,94466.44
2023-04-16T06:33:44.089Z,94462.69
2023-04-16T06:36:11.647Z,94458.81
2023-04-16T06:38:38.591Z,94461.25
2023-04-16T06:41:05.420Z,94458.53
2023-04-16T06:43:33.568Z,94464.59
2023-04-16T06:46:00.363Z,94457.88
2023-04-16T06:48:27.569Z,94469.66
2023-04-16T06:50:55.691Z,94456.72
2023-04-16T06:53:22.890Z,94469.44
2023-04-16T06:55:49.593Z,94466.09
2023-04-16T06:58:16.336Z,94459.31
2023-04-16T07:00:42.995Z,94461.41
2023-04-16T07:03:09.812Z,94463.19
2023-04-16T07:05:36.607Z,94451.06
2023-04-16T07:08:03.330Z,94450.56
2023-04-16T07:10:29.954Z,94450.47
2023-04-16T07:12:56.599Z,94453.03
2023-04-16T07:15:23.570Z,94451.03
2023-04-16T07:17:50.883Z,94448.59
2023-04-16T07:20:17.932Z,94423.13
2023-04-16T07:22:44.589Z,94457.34
2023-04-16T07:25:12.057Z,94465.13
2023-04-16T07:27:38.655Z,94450.72
2023-04-16T07:30:06.045Z,94464.00
2023-04-16T07:32:32.894Z,94466.00
2023-04-16T07:34:59.580Z,94452.97
2023-04-16T07:37:26.585Z,94457.50
2023-04-16T07:39:55.124Z,94447.53
2023-04-16T07:42:22.811Z,94452.81
2023-04-16T07:44:49.549Z,94442.13
2023-04-16T07:47:16.246Z,94441.66
2023-04-16T07:49:42.804Z,94463.59
2023-04-16T07:52:09.579Z,94451.16
2023-04-16T07:54:36.423Z,94461.69
2023-04-16T07:57:03.152Z,94450.94
2023-04-16T07:59:30.347Z,94442.72
2023-04-16T08:01:57.534Z,94458.66
2023-04-16T08:04:25.634Z,94454.38
2023-04-16T08:06:52.806Z,94445.47
2023-04-16T08:09:20.730Z,94459.69
2023-04-16T08:11:49.259Z,94446.69
2023-04-16T08:14:19.068Z,94454.34
2023-04-16T08:16:45.880Z,94434.72
2023-04-16T08:19:12.802Z,94453.41
2023-04-16T08:21:39.621Z,94442.91
2023-04-16T08:24:06.566Z,94437.31
2023-04-16T08:26:33.831Z,94435.81
2023-04-16T08:29:00.649Z,94434.91
2023-04-16T08:31:27.569Z,94429.19
2023-04-16T08:33:54.424Z,94422.94
2023-04-16T08:36:21.339Z,94435.31
2023-04-16T08:38:48.356Z,94420.56
2023-04-16T08:41:15.842Z,94428.59
2023-04-16T08:43:45.431Z,94441.63
2023-04-16T08:46:13.022Z,94415.50
2023-04-16T08:48:43.046Z,94418.81
2023-04-16T08:51:11.165Z,94422.44
2023-04-16T08:53:54.510Z,94422.25
2023-04-16T08:56:27.279Z,94415.94
2023-04-16T08:58:55.511Z,94425.84
2023-04-16T09:01:22.798Z,94399.91
2023-04-16T09:03:50.146Z,94414.78
2023-04-16T09:06:18.418Z,94412.16
2023-04-16T09:08:46.487Z,94396.28
2023-04-16T09:11:14.529Z,94395.00
2023-04-16T09:13:41.311Z,94404.81
2023-04-16T09:16:09.939Z,94390.97
2023-04-16T09:18:36.675Z,94401.22
2023-04-16T09:21:04.651Z,94408.53
2023-04-16T09:23:31.424Z,94404.69
2023-04-16T09:25:59.610Z,94411.38
2023-04-16T09:28:48.939Z,94408.53
2023-04-16T09:31:17.920Z,94409.25
2023-04-16T09:34:05.627Z,94391.22
2023-04-16T09:36:32.973Z,94397.81
2023-04-16T09:39:00.494Z,94412.56
2023-04-16T09:41:29.498Z,94413.28
2023-04-16T09:43:58.219Z,94399.47
2023-04-16T09:46:45.111Z,94403.13
2023-04-16T09:49:16.821Z,94384.69
2023-04-16T09:51:46.254Z,94411.19
2023-04-16T09:54:12.987Z,94394.44
2023-04-16T09:56:42.139Z,94393.34
2023-04-16T09:59:16.616Z,94391.69
2023-04-16T10:01:43.566Z,94391.56
2023-04-16T10:04:10.578Z,94388.69
2023-04-16T10:06:37.186Z,94386.72
2023-04-16T10:09:07.951Z,94383.44
2023-04-16T10:11:35.106Z,94385.09
2023-04-16T10:14:01.712Z,94370.28
2023-04-16T10:16:32.267Z,94383.00
2023-04-16T10:18:59.431Z,94374.22
2023-04-16T10:21:33.083Z,94371.69
2023-04-16T10:24:00.616Z,94367.56
2023-04-16T10:26:30.156Z,94366.16
2023-04-16T10:28:58.999Z,94372.13
2023-04-16T10:31:27.341Z,94361.69
2023-04-16T10:33:54.548Z,94360.00
2023-04-16T10:36:26.446Z,94349.31
2023-04-16T10:38:57.915Z,94342.03
2023-04-16T10:41:26.778Z,94346.19
2023-04-16T10:43:53.562Z,94352.34
2023-04-16T10:46:26.736Z,94351.84
2023-04-16T10:48:54.840Z,94353.97
2023-04-16T10:51:24.390Z,94359.53
2023-04-16T10:53:51.003Z,94363.72
2023-04-16T10:56:26.250Z,94350.81
2023-04-16T10:58:58.481Z,94341.28
2023-04-16T11:01:44.895Z,94351.84
2023-04-16T11:04:20.840Z,94340.78
2023-04-16T11:07:17.134Z,94343.94
2023-04-16T11:09:57.545Z,94340.50
2023-04-16T11:12:35.929Z,94333.34
2023-04-16T11:15:06.451Z,94310.66
2023-04-16T11:17:47.326Z,94323.47
2023-04-16T11:20:22.822Z,94322.22
2023-04-16T11:22:52.873Z,94314.97
2023-04-16T11:25:34.065Z,94319.94
2023-04-16T11:28:02.405Z,94311.00
2023-04-16T11:30:30.653Z,94305.72
2023-04-16T11:32:57.373Z,94304.25
2023-04-16T11:35:24.032Z,94309.44
2023-04-16T11:37:55.610Z,94302.84
2023-04-16T11:40:22.358Z,94294.69
2023-04-16T11:42:48.938Z,94298.72
2023-04-16T11:45:15.642Z,94283.72
2023-04-16T11:47:53.218Z,94282.59
2023-04-16T11:50:23.634Z,94286.22
2023-04-16T11:52:52.160Z,94284.38
2023-04-16T11:55:19.589Z,94287.28
2023-04-16T11:57:46.431Z,94279.09
2023-04-16T12:00:14.307Z,94283.84
2023-04-16T12:02:50.584Z,94271.13
2023-04-16T12:05:38.946Z,94276.88
2023-04-16T12:08:11.280Z,94264.97
2023-04-16T12:10:53.245Z,94261.44
2023-04-16T12:13:20.374Z,94262.97
2023-04-16T12:15:56.085Z,94260.59
2023-04-16T12:18:26.931Z,94250.94
2023-04-16T12:20:53.869Z,94249.81
2023-04-16T12:23:29.161Z,94244.78
2023-04-16T12:25:59.784Z,94246.03
2023-04-16T12:28:35.529Z,94243.72
2023-04-16T12:31:03.376Z,94253.31
2023-04-16T12:33:30.993Z,94240.56
2023-04-16T12:35:57.672Z,94248.72
2023-04-16T12:38:25.637Z,94238.75
2023-04-16T12:40:53.095Z,94225.91
2023-04-16T12:43:21.487Z,94228.28
2023-04-16T12:45:48.750Z,94218.38
2023-04-16T12:48:15.557Z,94221.78
2023-04-16T12:50:44.368Z,94234.69
2023-04-16T12:53:12.099Z,94230.53
2023-04-16T12:55:39.122Z,94225.75
2023-04-16T12:58:05.750Z,94221.00
2023-04-16T13:00:32.884Z,94220.78
2023-04-16T13:02:59.814Z,94211.59
2023-04-16T13:05:27.224Z,94222.81
2023-04-16T13:07:54.202Z,94220.00
2023-04-16T13:10:21.983Z,94215.63
2023-04-16T13:12:49.147Z,94216.19
2023-04-16T13:15:15.872Z,94212.22
2023-04-16T13:17:42.624Z,94211.59
2023-04-16T13:20:09.986Z,94203.22
2023-04-16T13:22:37.017Z,94204.03
2023-04-16T13:25:03.841Z,94209.38
2023-04-16T13:27:32.143Z,94208.16
2023-04-16T13:29:58.821Z,94206.50
2023-04-16T13:32:25.668Z,94197.91
2023-04-16T13:34:52.317Z,94187.63
2023-04-16T13:37:18.941Z,94190.47
2023-04-16T13:39:45.739Z,94188.50
2023-04-16T13:42:12.317Z,94192.91
2023-04-16T13:44:39.090Z,94189.22
2023-04-16T13:47:05.899Z,94187.81
2023-04-16T13:49:35.758Z,94193.09
2023-04-16T13:52:02.998Z,94188.91
2023-04-16T13:54:29.685Z,94193.25
2023-04-16T13:56:56.371Z,94198.06
2023-04-16T13:59:23.095Z,94211.78
2023-04-16T14:01:49.791Z,94196.59
2023-04-16T14:04:16.673Z,94208.31
2023-04-16T14:06:43.232Z,94209.56
2023-04-16T14:09:10.871Z,94217.75
2023-04-16T14:11:37.804Z,94222.25
2023-04-16T14:14:04.798Z,94226.22
2023-04-16T14:16:31.554Z,94219.25
2023-04-16T14:18:58.239Z,94208.31
2023-04-16T14:21:24.853Z,94235.44
2023-04-16T14:23:51.418Z,94234.44
2023-04-16T14:26:18.084Z,94246.88
2023-04-16T14:28:44.851Z,94252.09
2023-04-16T14:31:11.419Z,94250.09
2023-04-16T14:33:38.208Z,94257.56
2023-04-16T14:36:05.406Z,94255.06
2023-04-16T14:38:32.221Z,94275.75
2023-04-16T14:41:00.379Z,94275.28
2023-04-16T14:43:29.988Z,94282.00
2023-04-16T14:45:59.031Z,94261.75
2023-04-16T14:48:25.923Z,94280.25
2023-04-16T14:50:53.690Z,94271.72
2023-04-16T14:53:20.485Z,94269.72
2023-04-16T14:55:47.782Z,94274.69
2023-04-16T14:58:14.658Z,94280.16
2023-04-16T15:00:41.433Z,94282.13
2023-04-16T15:03:08.336Z,94284.84
2023-04-16T15:05:35.317Z,94299.44
2023-04-16T15:08:02.346Z,94280.72
2023-04-16T15:10:29.048Z,94279.22
2023-04-16T15:12:55.783Z,94285.63
2023-04-16T15:15:22.503Z,94289.06
2023-04-16T15:17:51.080Z,94282.06
2023-04-16T15:20:18.037Z,94285.28
2023-04-16T15:22:44.859Z,94293.72
2023-04-16T15:25:11.646Z,94286.97
2023-04-16T15:27:38.306Z,94276.75
2023-04-16T15:30:05.433Z,94271.59
2023-04-16T15:32:32.485Z,94268.81
2023-04-16T15:35:00.016Z,94278.91
2023-04-16T15:37:26.708Z,94296.72
2023-04-16T15:39:53.308Z,94292.75
2023-04-16T15:42:19.919Z,94286.44
2023-04-16T15:44:46.557Z,94288.47
2023-04-16T15:47:13.260Z,94293.34
2023-04-16T15:49:39.921Z,94299.50
2023-04-16T15:52:06.756Z,94303.25
2023-04-16T15:54:33.727Z,94299.50
2023-04-16T15:57:02.191Z,94313.34
2023-04-16T15:59:29.108Z,94304.72
2023-04-16T16:01:55.962Z,94310.78
2023-04-16T16:04:23.414Z,94315.97
2023-04-16T16:06:50.960Z,94315.19
2023-04-16T16:09:18.651Z,94308.50
2023-04-16T16:11:45.326Z,94305.44
2023-04-16T16:14:11.998Z,94310.63
2023-04-16T16:16:39.806Z,94322.28
2023-04-16T16:19:07.235Z,94323.16
2023-04-16T16:21:33.988Z,94325.41
2023-04-16T16:24:00.593Z,94311.00
2023-04-16T16:26:27.231Z,94315.56
2023-04-16T16:28:53.825Z,94326.16
2023-04-16T16:31:20.983Z,94320.84
2023-04-16T16:33:47.738Z,94314.66
2023-04-16T16:36:14.631Z,94313.84
2023-04-16T16:38:42.514Z,94321.38
2023-04-16T16:41:09.180Z,94325.34
2023-04-16T16:43:36.785Z,94323.44
2023-04-16T16:46:03.790Z,94332.94
2023-04-16T16:48:30.463Z,94333.00
2023-04-16T16:50:57.372Z,94334.34
2023-04-16T16:53:23.985Z,94341.56
2023-04-16T16:55:50.935Z,94347.44
2023-04-16T16:58:17.602Z,94341.88
2023-04-16T17:00:44.436Z,94351.47
2023-04-16T17:03:11.416Z,94349.59
2023-04-16T17:05:38.295Z,94353.88
2023-04-16T17:08:05.053Z,94343.88
2023-04-16T17:10:31.750Z,94351.16
2023-04-16T17:12:58.450Z,94341.97
2023-04-16T17:15:25.101Z,94353.56
2023-04-16T17:17:51.813Z,94348.53
2023-04-16T17:20:18.708Z,94353.97
2023-04-16T17:22:45.457Z,94367.91
2023-04-16T17:25:12.455Z,94353.13
2023-04-16T17:27:39.369Z,94360.81
2023-04-16T17:30:06.791Z,94355.25
2023-04-16T17:32:33.641Z,94355.41
2023-04-16T17:35:01.156Z,94345.66
2023-04-16T17:37:27.978Z,94351.00
2023-04-16T17:39:54.674Z,94354.69
2023-04-16T17:42:21.768Z,94351.53
2023-04-16T17:44:49.024Z,94349.59
2023-04-16T17:47:15.974Z,94337.25
2023-04-16T17:49:43.055Z,94361.22
2023-04-16T17:52:09.920Z,94338.78
2023-04-16T17:54:36.563Z,94360.47
2023-04-16T17:57:03.196Z,94360.34
2023-04-16T17:59:33.415Z,94339.88
2023-04-16T18:02:01.510Z,94353.94
2023-04-16T18:04:28.491Z,94360.91
2023-04-16T18:06:55.320Z,94365.59
2023-04-16T18:09:21.950Z,94365.31
2023-04-16T18:11:48.631Z,94357.13
2023-04-16T18:14:19.904Z,94362.88
2023-04-16T18:16:48.148Z,94363.91
2023-04-16T18:19:16.176Z,94367.75
2023-04-16T18:21:43.356Z,94369.75
2023-04-16T18:24:10.429Z,94374.44
2023-04-16T18:26:37.613Z,94370.13
2023-04-16T18:29:05.549Z,94367.72
2023-04-16T18:31:32.936Z,94366.97
2023-04-16T18:33:59.749Z,94360.41
2023-04-16T18:36:27.265Z,94370.56
2023-04-16T18:39:00.923Z,94364.63
2023-04-16T18:41:29.069Z,94359.97
2023-04-16T18:43:55.930Z,94367.41
2023-04-16T18:46:22.953Z,94357.47
2023-04-16T18:48:49.838Z,94361.41
2023-04-16T18:51:16.812Z,94365.16
2023-04-16T18:53:45.513Z,94372.06
2023-04-16T18:56:14.159Z,94368.94
2023-04-16T18:58:40.812Z,94366.53
2023-04-16T19:01:11.270Z,94344.13
2023-04-16T19:03:38.567Z,94374.31
2023-04-16T19:06:06.080Z,94369.00
2023-04-16T19:08:33.060Z,94371.72
2023-04-16T19:10:59.940Z,94363.34
2023-04-16T19:13:26.751Z,94354.09
2023-04-16T19:16:02.795Z,94354.13
2023-04-16T19:18:29.471Z,94371.25
2023-04-16T19:21:00.713Z,94365.00
2023-04-16T19:23:28.096Z,94369.09
2023-04-16T19:25:57.893Z,94378.91
2023-04-16T19:28:25.012Z,94379.84
2023-04-16T19:30:52.243Z,94374.19
2023-04-16T19:33:19.196Z,94361.31
2023-04-16T19:35:46.430Z,94364.03
2023-04-16T19:38:13.252Z,94356.06
2023-04-16T19:40:40.384Z,94333.81
2023-04-16T19:43:07.176Z,94350.75
2023-04-16T19:45:33.884Z,94349.31
2023-04-16T19:48:00.595Z,94349.56
2023-04-16T19:50:27.249Z,94362.25
2023-04-16T19:52:53.883Z,94335.00
2023-04-16T19:55:20.549Z,94352.78
2023-04-16T19:57:48.136Z,94352.31
2023-04-16T20:00:15.284Z,94353.25
2023-04-16T20:02:42.056Z,94346.09
2023-04-16T20:05:09.332Z,94356.94
2023-04-16T20:07:36.065Z,94357.47
2023-04-16T20:10:03.056Z,94357.00
2023-04-16T20:12:29.825Z,94353.81
2023-04-16T20:14:56.443Z,94354.28
2023-04-16T20:17:23.344Z,94351.28
2023-04-16T20:19:51.277Z,94326.81
2023-04-16T20:22:18.903Z,94345.81
2023-04-16T20:24:47.964Z,94352.09
2023-04-16T20:27:15.349Z,94351.88
2023-04-16T20:29:42.194Z,94342.03
2023-04-16T20:32:08.928Z,94336.75
2023-04-16T20:34:36.719Z,94324.22
2023-04-16T20:37:03.906Z,94339.97
2023-04-16T20:39:34.216Z,94340.66
2023-04-16T20:42:04.227Z,94347.28
2023-04-16T20:44:40.443Z,94346.97
2023-04-16T20:47:08.723Z,94352.28
2023-04-16T20:49:35.568Z,94346.66
2023-04-16T20:52:02.572Z,94335.28
2023-04-16T20:54:31.996Z,94347.06
2023-04-16T20:56:59.022Z,94348.56
2023-04-16T20:59:26.068Z,94350.78
2023-04-16T21:01:52.901Z,94341.19
2023-04-16T21:04:19.610Z,94346.72
2023-04-16T21:06:46.793Z,94347.66
2023-04-16T21:09:13.457Z,94338.22
2023-04-16T21:11:40.431Z,94330.44
2023-04-16T21:14:07.070Z,94332.94
2023-04-16T21:16:33.857Z,94340.91
2023-04-16T21:19:00.493Z,94340.78
2023-04-16T21:21:27.592Z,94335.31
2023-04-16T21:23:54.257Z,94322.75
2023-04-16T21:26:21.331Z,94333.97
2023-04-16T21:28:48.320Z,94335.53
2023-04-16T21:31:15.204Z,94331.53
2023-04-16T21:33:42.016Z,94325.91
2023-04-16T21:36:08.934Z,94331.44
2023-04-16T21:38:35.680Z,94333.97
2023-04-16T21:41:02.587Z,94330.91
2023-04-16T21:43:30.686Z,94341.38
2023-04-16T21:45:57.904Z,94321.69
2023-04-16T21:48:24.893Z,94331.19
2023-04-16T21:50:59.209Z,94335.81
2023-04-16T21:53:28.086Z,94336.97
2023-04-16T21:55:54.741Z,94322.66
2023-04-16T21:58:21.357Z,94317.69
2023-04-16T22:00:48.036Z,94333.34
2023-04-16T22:03:14.954Z,94333.28
2023-04-16T22:05:41.689Z,94332.53
2023-04-16T22:08:23.629Z,94319.44
2023-04-16T22:10:51.372Z,94326.97
2023-04-16T22:13:18.238Z,94325.03
2023-04-16T22:15:44.861Z,94325.34
2023-04-16T22:18:11.781Z,94319.97
2023-04-16T22:20:39.205Z,94319.28
2023-04-16T22:23:06.718Z,94312.81
2023-04-16T22:25:33.740Z,94326.19
2023-04-16T22:28:03.617Z,94322.81
2023-04-16T22:30:30.359Z,94313.63
2023-04-16T22:32:57.792Z,94315.78
2023-04-16T22:35:24.436Z,94313.16
2023-04-16T22:37:51.089Z,94304.63
2023-04-16T22:40:18.309Z,94320.22
2023-04-16T22:42:44.960Z,94295.97
2023-04-16T22:45:12.686Z,94312.56
2023-04-16T22:47:39.507Z,94304.25
2023-04-16T22:50:06.768Z,94300.97
2023-04-16T22:52:33.501Z,94291.69
2023-04-16T22:55:00.165Z,94299.75
2023-04-16T22:57:26.828Z,94293.84
2023-04-16T22:59:53.613Z,94277.44
2023-04-16T23:02:21.557Z,94292.06
2023-04-16T23:04:48.375Z,94288.97
2023-04-16T23:07:15.821Z,94292.25
2023-04-16T23:09:42.655Z,94291.09
2023-04-16T23:12:09.285Z,94292.50
2023-04-16T23:14:37.059Z,94286.09
2023-04-16T23:17:03.732Z,94285.63
2023-04-16T23:19:31.299Z,94290.03
2023-04-16T23:21:58.210Z,94283.84
2023-04-16T23:24:25.139Z,94276.16
2023-04-16T23:26:52.506Z,94284.97
2023-04-16T23:29:21.094Z,94277.97
2023-04-16T23:31:47.940Z,94282.75
2023-04-16T23:34:14.944Z,94281.34
2023-04-16T23:36:41.769Z,94280.94
2023-04-16T23:39:08.388Z,94274.72
2023-04-16T23:41:35.151Z,94265.53
2023-04-16T23:44:01.867Z,94278.38
2023-04-16T23:46:28.558Z,94278.16
2023-04-16T23:48:55.470Z,94264.97
2023-04-16T23:51:22.388Z,94278.94
2023-04-16T23:53:49.087Z,94273.22
2023-04-16T23:56:16.368Z,94259.13
2023-04-16T23:58:43.010Z,94269.13
